Latest Weather Observations for Truscott

IDD60801

Issued at 10:05 am CST Thursday 17 April 2014 (issued every 30 minutes, with the page automatically refreshed every 10 minutes)

About weather observations | Map of weather stations | Latest weather observations for NT | Other Formats
Station Details ID: 001020 Name: TRUSCOTT Lat: -14.09 Lon: 126.39 Height: 51.0 m
Data from the previous 72 hours. | See also: Recent months at Truscott
Date/Time
CST
Temp
°C
App
Temp
°C
Dew
Point
Rel
Hum
%
Delta-T
°C
Wind Press
QNH
hPa
Press
MSL
hPa
Rain
since 9 am
mm
Dir
 
Spd
km/h
Gust
km/h
Spd
kts
Gust
kts
17/10:00am 29.9 28.6 14.8 39 9.2 ESE 15 24 8 13 1011.9 - 0.0
17/09:30am 29.0 28.9 15.9 45 8.1 ESE 11 15 6 8 1011.9 - 0.0
17/09:00am 27.9 27.8 15.9 48 7.4 SE 11 17 6 9 1011.8 - 0.0
17/08:30am 26.6 26.9 15.9 51 6.6 SSE 9 13 5 7 1011.5 - 0.0
17/08:00am 25.7 26.6 16.5 56 5.7 SE 7 11 4 6 1011.2 - 0.0
17/07:30am 24.3 24.9 16.8 63 4.6 SSE 9 13 5 7 1011.0 1010.5 0.0
17/07:00am 23.8 24.9 17.1 66 4.1 SSE 7 11 4 6 1010.7 - 0.0
17/06:30am 24.0 24.6 16.8 64 4.4 SSE 9 11 5 6 1010.5 - 0.0
17/06:00am 24.4 25.4 16.9 63 4.6 SSE 7 11 4 6 1010.2 - 0.0
17/05:30am 24.1 24.7 16.9 64 4.4 SSE 9 11 5 6 1010.2 - 0.0
17/05:00am 23.8 24.6 17.3 67 4.0 SSE 9 11 5 6 1010.2 - 0.0
17/04:30am 23.2 24.7 18.1 73 3.2 S 7 9 4 5 1010.2 1009.7 0.0
17/04:00am 23.3 25.1 18.8 76 2.9 SSE 7 9 4 5 1010.3 - 0.0
17/03:30am 23.1 24.7 17.8 72 3.3 SSE 6 7 3 4 1010.3 - 0.0
17/03:00am 24.2 25.8 18.2 69 3.8 SSE 7 9 4 5 1010.5 - 0.0
17/02:30am 24.3 26.0 18.5 70 3.7 SSE 7 11 4 6 1010.6 - 0.0
17/02:00am 24.1 25.7 18.3 70 3.7 SSE 7 9 4 5 1010.8 - 0.0
17/01:30am 24.1 25.6 18.1 69 3.8 SSE 7 9 4 5 1011.1 1010.6 0.0
17/01:00am 24.7 26.1 17.9 66 4.3 SE 7 9 4 5 1011.4 - 0.0
17/12:30am 25.2 26.6 17.7 63 4.7 SE 7 9 4 5 1011.6 - 0.0
17/12:00am 25.3 26.6 17.5 62 4.9 SE 7 9 4 5 1011.7 - 0.0
 
Date/Time
CST
Temp
°C
App
Temp
°C
Dew
Point
Rel
Hum
%
Delta-T
°C
Wind Press
QNH
hPa
Press
MSL
hPa
Rain
since 9 am
mm
Dir
 
Spd
km/h
Gust
km/h
Spd
kts
Gust
kts
16/11:30pm 25.8 27.4 18.2 63 4.8 ESE 7 11 4 6 1011.7 - 0.0
16/11:00pm 26.0 27.8 18.7 64 4.7 E 7 9 4 5 1011.4 - 0.0
16/10:30pm 26.0 27.8 18.7 64 4.7 E 7 9 4 5 1011.4 1010.9 0.0
16/10:00pm 26.7 28.2 17.5 57 5.8 E 6 7 3 4 1011.2 - 0.0
16/09:30pm 27.0 28.5 17.5 56 6.0 E 6 7 3 4 1011.0 - 0.0
16/09:00pm 28.2 28.9 17.1 51 7.0 ENE 9 11 5 6 1010.5 - 0.0
16/08:58pm 28.1 28.9 17.3 52 6.8 ENE 9 13 5 7 1010.5 - 0.0
16/08:42pm 27.9 29.0 18.0 55 6.3 ENE 9 15 5 8 1010.2 - 0.0
16/08:30pm 27.9 29.3 18.6 57 6.0 ENE 9 11 5 6 1010.0 - 0.0
16/08:00pm 28.0 29.8 18.7 57 6.0 ENE 7 11 4 6 1009.6 - 0.0
16/07:30pm 28.3 30.0 18.4 55 6.4 NE 7 9 4 5 1009.1 1008.6 0.0
16/07:00pm 28.9 30.4 18.1 52 6.9 ENE 7 9 4 5 1008.8 - 0.0
16/06:30pm 29.9 31.0 18.0 48 7.6 NE 9 15 5 8 1008.6 - 0.0
16/06:00pm 31.2 32.4 18.2 46 8.4 NE 9 13 5 7 1008.5 - 0.0
16/05:30pm 31.1 31.9 17.4 44 8.7 NE 9 15 5 8 1008.2 - 0.0
16/05:00pm 32.1 31.6 16.0 38 10.1 ENE 13 17 7 9 1008.0 - 0.0
16/04:30pm 32.8 32.1 14.4 33 11.3 E 11 15 6 8 1007.9 1007.4 0.0
16/04:00pm 32.7 31.8 14.8 34 11.0 E 13 17 7 9 1008.2 - 0.0
16/03:30pm 32.9 31.5 14.5 33 11.3 E 15 22 8 12 1008.3 - 0.0
16/03:00pm 33.0 32.5 15.9 35 10.7 E 13 20 7 11 1008.6 - 0.0
16/02:30pm 32.5 31.0 14.1 32 11.2 E 15 24 8 13 1008.9 - 0.0
16/02:00pm 32.8 31.9 15.8 36 10.6 E 15 24 8 13 1009.5 - 0.0
16/01:30pm 32.2 30.5 15.7 37 10.3 E 19 32 10 17 1010.1 1009.6 0.0
16/01:00pm 32.2 30.1 15.2 35 10.5 E 20 32 11 17 1010.6 - 0.0
16/12:30pm 31.6 29.5 14.7 36 10.4 E 19 32 10 17 1011.1 - 0.0
16/12:00pm 31.3 29.3 14.9 37 10.1 ESE 19 30 10 16 1011.4 - 0.0
16/11:30am 31.0 28.4 15.0 38 9.8 E 22 35 12 19 1011.8 - 0.0
16/11:00am 30.6 28.9 15.8 40 9.2 ESE 19 33 10 18 1012.0 - 0.0
16/10:30am 29.9 28.0 15.2 41 9.0 ESE 19 30 10 16 1012.0 1011.5 0.0
16/10:00am 29.5 28.1 14.5 40 9.1 SE 15 24 8 13 1012.0 - 0.0
16/09:30am 28.6 26.9 14.8 43 8.4 SE 17 24 9 13 1012.0 - 0.0
16/09:00am 27.7 27.2 15.0 45 7.7 SE 11 17 6 9 1012.0 - 0.0
16/08:30am 26.7 26.1 14.5 47 7.3 SSE 11 17 6 9 1011.7 - 0.0
16/08:00am 25.6 25.3 14.4 50 6.7 SSE 9 13 5 7 1011.3 - 0.0
16/07:30am 24.5 24.3 14.6 54 5.9 SSE 9 13 5 7 1010.9 1010.4 0.0
16/07:00am 24.1 24.1 15.3 58 5.3 S 9 13 5 7 1010.6 - 0.0
16/06:30am 24.5 24.6 15.4 57 5.5 SSE 9 15 5 8 1010.3 - 0.0
16/06:00am 24.8 24.7 16.0 58 5.4 S 11 15 6 8 1010.1 - 0.0
16/05:30am 24.9 24.8 16.1 58 5.4 S 11 13 6 7 1010.1 - 0.0
16/05:00am 24.4 25.2 17.4 65 4.4 SSE 9 13 5 7 1010.1 - 0.0
16/04:30am 24.3 25.3 17.8 67 4.1 SSE 9 13 5 7 1010.2 1009.7 0.0
16/04:00am 24.1 25.6 18.1 69 3.8 SE 7 11 4 6 1010.4 - 0.0
16/03:30am 24.7 26.4 18.4 68 4.0 SE 7 11 4 6 1010.5 - 0.0
16/03:00am 25.0 26.7 18.4 66 4.2 ESE 7 11 4 6 1010.5 - 0.0
16/02:30am 25.2 26.5 18.4 66 4.3 SE 9 11 5 6 1010.9 - 0.0
16/02:00am 25.2 27.1 18.9 68 4.0 ESE 7 9 4 5 1011.3 - 0.0
16/01:30am 25.4 27.5 19.3 69 3.9 ESE 7 11 4 6 1011.3 1010.8 0.0
16/01:00am 25.7 28.0 19.8 70 3.8 E 7 11 4 6 1011.6 - 0.0
16/12:30am 25.2 27.8 20.5 75 3.1 E 7 9 4 5 1012.0 - 0.0
16/12:00am 25.2 27.7 20.2 74 3.3 E 7 9 4 5 1012.0 - 0.0
 
Date/Time
CST
Temp
°C
App
Temp
°C
Dew
Point
Rel
Hum
%
Delta-T
°C
Wind Press
QNH
hPa
Press
MSL
hPa
Rain
since 9 am
mm
Dir
 
Spd
km/h
Gust
km/h
Spd
kts
Gust
kts
15/11:30pm 25.5 27.8 19.9 71 3.6 ENE 7 9 4 5 1011.9 - 0.0
15/11:00pm 26.0 28.1 19.4 67 4.3 E 7 9 4 5 1011.8 - 0.0
15/10:30pm 27.2 29.1 19.0 61 5.3 ENE 7 11 4 6 1011.9 1011.4 0.0
15/10:00pm 27.7 29.2 19.0 59 5.6 ENE 9 13 5 7 1011.6 - 0.0
15/09:30pm 27.9 29.1 19.1 58 5.7 E 11 17 6 9 1011.3 - 0.0
15/09:00pm 27.7 29.3 19.2 60 5.5 ENE 9 13 5 7 1011.0 - 0.0
15/08:30pm 27.9 29.4 18.9 58 5.8 ENE 9 13 5 7 1010.5 - 0.0
15/08:00pm 28.2 29.6 18.6 56 6.2 ENE 9 13 5 7 1010.1 - 0.0
15/07:30pm 28.7 30.2 18.8 55 6.4 ENE 9 15 5 8 1009.6 1009.1 0.0
15/07:00pm 29.3 31.1 18.7 52 6.8 NE 7 15 4 8 1009.2 - 0.0
15/06:30pm 31.1 32.8 18.5 47 8.2 NE 7 11 4 6 1008.9 - 0.0
15/06:00pm 31.8 32.5 16.1 38 9.8 NE 7 15 4 8 1008.7 - 0.0
15/05:30pm 32.3 32.1 15.7 36 10.4 ENE 11 15 6 8 1008.4 - 0.0
15/05:00pm 32.6 32.7 15.6 36 10.6 NE 9 17 5 9 1008.2 - 0.0
15/04:30pm 32.7 32.3 16.1 37 10.5 ENE 13 20 7 11 1008.0 1007.5 0.0
15/04:00pm 32.8 33.1 17.8 40 9.7 ENE 13 19 7 10 1008.2 - 0.0
15/03:30pm 32.6 32.8 17.6 40 9.6 ENE 13 24 7 13 1008.3 - 0.0
15/03:00pm 32.3 31.1 16.2 38 10.1 E 17 26 9 14 1008.5 - 0.0
15/02:30pm 32.4 31.1 15.8 36 10.4 E 17 22 9 12 1008.8 - 0.0
15/02:00pm 32.4 31.6 17.1 40 9.7 ENE 17 30 9 16 1009.4 - 0.0
15/01:30pm 32.0 30.4 15.9 38 10.1 E 19 28 10 15 1009.8 1009.3 0.0
15/01:00pm 32.0 30.7 15.9 38 10.1 E 17 26 9 14 1010.2 - 0.0
15/12:30pm 31.8 30.9 16.9 40 9.4 ESE 17 24 9 13 1010.7 - 0.0
15/12:00pm 31.9 31.5 18.1 43 8.9 E 17 28 9 15 1011.1 - 0.0
15/11:30am 30.9 29.8 17.2 43 8.7 E 19 28 10 15 1011.3 - 0.0
15/11:00am 30.4 29.2 17.1 44 8.4 ESE 19 28 10 15 1011.5 - 0.0
15/10:30am 29.8 28.5 16.9 45 8.1 E 19 30 10 16 1011.6 1011.1 0.0
15/10:00am 29.4 28.9 17.9 50 7.3 ESE 17 26 9 14 1011.8 - 0.0
15/09:30am 28.9 28.6 17.4 49 7.3 SE 15 24 8 13 1011.7 - 0.0
15/09:00am 28.1 28.9 18.2 55 6.3 SE 11 17 6 9 1011.6 - 0.0
15/08:30am 27.2 28.3 18.8 60 5.4 SSE 11 17 6 9 1011.4 - 0.0
15/08:00am 25.8 27.4 19.2 67 4.2 S 9 13 5 7 1011.1 - 0.0
15/07:30am 24.5 26.2 19.3 73 3.3 S 9 13 5 7 1010.8 1010.3 0.0
15/07:00am 24.0 26.1 19.3 75 3.0 S 7 9 4 5 1010.5 - 0.0
15/06:30am 24.3 26.4 19.4 74 3.1 S 7 9 4 5 1010.3 - 0.0
15/06:00am 24.8 26.6 19.6 73 3.4 S 9 15 5 8 1010.4 - 0.0
15/05:30am 24.9 26.8 19.7 73 3.4 S 9 15 5 8 1010.1 - 0.0
15/05:00am 23.6 25.9 19.9 80 2.4 S 7 9 4 5 1009.9 - 0.0
15/04:30am 24.2 26.4 19.7 76 2.9 S 7 9 4 5 1010.0 1009.5 0.0
15/04:00am 25.0 27.6 20.0 74 3.2 SSW 6 7 3 4 1010.0 - 0.0
15/03:30am 24.9 27.4 20.2 75 3.1 S 7 7 4 4 1009.9 - 0.0
15/03:00am 25.1 27.9 20.8 77 2.8 S 7 9 4 5 1009.9 - 0.0
15/02:30am 25.1 27.8 21.4 80 2.5 S 9 11 5 6 1010.0 - 0.0
15/02:00am 25.6 28.7 21.5 78 2.7 S 7 9 4 5 1010.3 - 0.0
15/01:30am 25.7 28.9 21.6 78 2.7 SSE 7 9 4 5 1010.5 1010.0 0.0
15/01:00am 26.1 29.5 22.0 78 2.7 SSE 7 11 4 6 1010.8 - 0.0
15/12:30am 26.7 30.4 22.3 77 3.0 ESE 6 9 3 5 1011.1 - 0.0
15/12:00am 27.0 30.6 22.4 76 3.1 E 7 11 4 6 1011.1 - 0.0
 
Date/Time
CST
Temp
°C
App
Temp
°C
Dew
Point
Rel
Hum
%
Delta-T
°C
Wind Press
QNH
hPa
Press
MSL
hPa
Rain
since 9 am
mm
Dir
 
Spd
km/h
Gust
km/h
Spd
kts
Gust
kts
14/11:30pm 27.0 30.2 21.7 73 3.5 E 7 11 4 6 1011.1 - 0.0
14/11:00pm 27.4 30.1 21.4 70 4.0 ENE 9 13 5 7 1011.0 - 0.0
14/10:30pm 27.5 30.6 21.5 70 4.0 ENE 7 11 4 6 1011.0 1010.5 0.0
14/10:00pm 27.5 30.5 21.3 69 4.1 E 7 11 4 6 1010.9 - 0.0
14/09:30pm 28.0 30.5 20.3 63 5.1 ENE 7 9 4 5 1010.6 - 0.0
14/09:00pm 28.7 30.8 20.2 60 5.6 E 9 13 5 7 1010.1 - 0.0
14/08:30pm 29.1 31.0 20.5 59 5.7 E 11 19 6 10 1009.6 - 0.0
14/08:00pm 29.3 31.6 21.3 62 5.4 ENE 11 17 6 9 1009.2 - 0.0
14/07:30pm 29.2 32.2 21.9 64 4.9 NNE 9 15 5 8 1008.8 1008.3 0.0
14/07:00pm 29.6 33.2 23.1 68 4.5 NNE 9 15 5 8 1008.5 - 0.0
14/06:30pm 29.8 33.0 23.0 67 4.7 N 11 19 6 10 1008.2 - 0.0
14/06:00pm 30.2 32.0 21.8 60 5.7 N 15 22 8 12 1008.0 - 0.0
14/05:30pm 30.6 32.6 22.2 61 5.7 N 15 20 8 11 1007.7 - 0.0
14/05:00pm 32.6 34.1 18.8 44 9.0 NE 9 13 5 7 1007.4 - 0.0
14/04:30pm 32.6 34.3 18.4 43 9.2 NE 7 11 4 6 1007.2 1006.7 0.0
14/04:00pm 32.1 31.8 16.4 39 9.9 ENE 13 24 7 13 1007.2 - 0.0
14/03:30pm 33.4 33.7 18.0 40 10.0 E 13 20 7 11 1007.4 - 0.0
14/03:00pm 33.1 33.1 17.3 39 10.1 ENE 13 20 7 11 1007.7 - 0.0
14/02:30pm 33.0 33.0 17.2 39 10.1 ENE 13 20 7 11 1008.0 - 0.0
14/02:00pm 33.0 33.6 19.5 45 8.9 ENE 15 20 8 11 1008.4 - 0.0
14/01:30pm 32.8 34.0 20.0 47 8.5 E 13 22 7 12 1008.5 1008.0 0.0
14/01:00pm 32.3 32.4 17.4 41 9.5 E 13 20 7 11 1009.0 - 0.0
14/12:30pm 31.8 32.4 17.7 43 9.0 ESE 11 22 6 12 1009.7 - 0.0
14/12:00pm 31.6 32.7 19.6 49 7.9 ESE 13 19 7 10 1010.3 - 0.0

Other Formats:

Comma delimited format used in spreadsheet applications
http://www.bom.gov.au/fwo/IDD60801/IDD60801.95101.axf

JavaScript Object Notation format (JSON) in row-major order
http://www.bom.gov.au/fwo/IDD60801/IDD60801.95101.json